Time;durP1;ratioP1;P1;durP2;ratioP2;P2;SDS_P1;SDS_P2;PMS_P1;PMS_P2;Temp;Humidity;BMP_temperature;BMP_pressure;BME280_temperature;BME280_humidity;BME280_pressure;Samples;Min_cycle;Max_cycle;Signal;HPM_P1;HPM_P2
2022/11/08 07:07:10;;;;;;;16.90;4.47;;;;;;;20.60;52.49;99899.72;5089412;27;20768;-58
2022/11/08 07:09:38;;;;;;;13.60;3.72;;;;;;;21.65;49.52;99905.00;5069705;28;20040;-58
2022/11/08 07:12:07;;;;;;;13.43;3.72;;;;;;;22.37;47.43;99907.91;5069501;28;20029;-58
2022/11/08 07:14:35;;;;;;;14.35;3.60;;;;;;;22.85;45.99;99910.66;5069539;28;20029;-58
2022/11/08 07:17:04;;;;;;;12.98;2.92;;;;;;;23.17;44.75;99892.34;5068718;28;20116;-59
2022/11/08 07:19:33;;;;;;;12.00;3.45;;;;;;;23.45;44.32;99907.16;5069357;28;20033;-59
2022/11/08 07:22:01;;;;;;;12.85;3.63;;;;;;;23.67;43.95;99900.13;5069627;28;20025;-57
2022/11/08 07:24:31;;;;;;;8.57;2.42;;;;;;;23.85;43.56;99906.22;5069122;28;20385;-54
2022/11/08 07:26:59;;;;;;;9.15;2.85;;;;;;;23.80;43.26;99901.00;5068058;28;20493;-58
2022/11/08 07:29:28;;;;;;;9.38;2.92;;;;;;;23.95;43.01;99900.94;5069402;28;20051;-58
2022/11/08 07:31:57;;;;;;;11.13;3.83;;;;;;;23.97;42.71;99895.75;5069193;28;20055;-58
2022/11/08 07:34:25;;;;;;;8.18;2.40;;;;;;;24.01;43.09;99907.94;5069094;28;20029;-57
2022/11/08 07:36:54;;;;;;;8.27;2.45;;;;;;;24.04;42.70;99901.81;5068792;28;20025;-57
2022/11/08 07:39:22;;;;;;;10.98;3.38;;;;;;;24.09;42.50;99892.16;5069008;28;20436;-58
2022/11/08 07:41:51;;;;;;;14.02;2.53;;;;;;;24.18;42.51;99902.63;5068868;28;20032;-59
2022/11/08 07:44:19;;;;;;;9.13;3.53;;;;;;;24.17;42.52;99908.75;5068787;28;20031;-58
2022/11/08 07:46:48;;;;;;;10.20;3.10;;;;;;;24.10;42.68;99900.03;5068990;28;20102;-59
2022/11/08 07:49:17;;;;;;;8.80;2.92;;;;;;;24.11;42.63;99914.00;5068585;28;20032;-58
2022/11/08 07:51:45;;;;;;;9.15;2.58;;;;;;;24.21;42.16;99912.22;5067147;28;20052;-58
2022/11/08 07:54:14;;;;;;;10.57;3.20;;;;;;;24.22;42.37;99906.09;5068573;28;20082;-59
2022/11/08 07:56:42;;;;;;;10.95;3.33;;;;;;;24.20;42.61;99913.97;5068695;28;20175;-58
2022/11/08 07:59:11;;;;;;;11.48;2.97;;;;;;;24.24;42.36;99920.06;5068749;28;20028;-58
2022/11/08 08:01:58;;;;;;;10.73;2.88;;;;;;;24.26;42.24;99926.19;5067373;28;20029;-58
2022/11/08 08:04:28;;;;;;;11.57;3.42;;;;;;;24.31;42.19;99919.19;5068155;28;20056;-59
2022/11/08 08:06:58;;;;;;;11.15;3.63;;;;;;;24.25;41.89;99916.56;5068989;28;20025;-58
2022/11/08 08:09:26;;;;;;;11.35;3.55;;;;;;;24.09;41.93;99890.44;5068590;28;20062;-58
2022/11/08 08:11:55;;;;;;;12.20;2.80;;;;;;;24.24;41.98;99915.69;5068290;28;20033;-58
2022/11/08 08:14:23;;;;;;;11.65;3.05;;;;;;;24.23;41.96;99928.81;5068012;28;20032;-59
2022/11/08 08:16:52;;;;;;;9.43;3.22;;;;;;;24.22;41.92;99920.09;5058877;28;20442;-58
2022/11/08 08:19:21;;;;;;;9.25;2.83;;;;;;;24.28;42.09;99925.28;5055131;28;20090;-59
2022/11/08 08:21:49;;;;;;;11.02;2.90;;;;;;;24.32;42.05;99931.41;5054999;28;20040;-59
2022/11/08 08:24:17;;;;;;;9.30;3.03;;;;;;;24.21;42.18;99933.19;5053590;28;20697;-55
2022/11/08 08:26:44;;;;;;;12.50;2.97;;;;;;;24.29;41.75;99931.41;5055838;28;20021;-59
2022/11/08 08:29:31;;;;;;;10.60;3.45;;;;;;;24.25;42.13;99932.28;5062533;28;20482;-59
2022/11/08 08:31:58;;;;;;;13.52;2.83;;;;;;;24.23;42.18;99941.91;5059924;28;20028;-59
2022/11/08 08:34:27;;;;;;;11.35;3.20;;;;;;;24.23;41.93;99941.91;5061568;28;20041;-59
2022/11/08 08:36:55;;;;;;;8.80;2.45;;;;;;;24.25;42.22;99935.78;5062589;28;20029;-58
2022/11/08 08:39:23;;;;;;;13.23;3.63;;;;;;;24.31;41.91;99950.63;5064816;28;20024;-59
2022/11/08 08:41:51;;;;;;;12.00;3.13;;;;;;;24.09;42.21;99921.00;5062358;28;20473;-59
2022/11/08 08:44:18;;;;;;;11.23;3.22;;;;;;;24.12;41.95;99932.34;5064491;28;20363;-59
2022/11/08 08:46:46;;;;;;;10.68;3.13;;;;;;;24.18;41.93;99935.81;5057654;28;20029;-59
2022/11/08 08:49:15;;;;;;;10.65;3.00;;;;;;;24.15;42.26;99946.31;5061890;28;20471;-58
2022/11/08 08:51:43;;;;;;;12.88;2.83;;;;;;;24.11;41.78;99925.38;5057710;28;20029;-58
2022/11/08 08:54:13;;;;;;;15.30;3.28;;;;;;;24.26;41.77;99939.28;5063828;28;20025;-58
2022/11/08 08:56:42;;;;;;;10.77;3.10;;;;;;;24.26;41.98;99936.66;5062629;28;20032;-58
2022/11/08 08:59:10;;;;;;;13.98;3.35;;;;;;;24.22;41.89;99934.91;5058872;28;20021;-58
2022/11/08 09:01:39;;;;;;;10.63;3.25;;;;;;;24.20;42.03;99947.16;5063826;28;20497;-58
2022/11/08 09:04:07;;;;;;;10.13;3.45;;;;;;;24.26;41.68;99944.53;5057225;28;20048;-58
2022/11/08 09:06:34;;;;;;;9.73;3.17;;;;;;;24.19;42.13;99942.78;5061568;28;20580;-59
2022/11/08 09:09:03;;;;;;;12.48;3.58;;;;;;;24.18;41.91;99943.66;5060552;28;20060;-59
2022/11/08 09:11:30;;;;;;;9.90;2.75;;;;;;;24.26;42.00;99945.38;5053906;28;20525;-58
2022/11/08 09:13:59;;;;;;;11.05;3.90;;;;;;;24.31;41.60;99955.88;5054112;28;20032;-58
2022/11/08 09:16:28;;;;;;;11.32;3.00;;;;;;;24.22;42.01;99954.16;5054006;28;20104;-58
2022/11/08 09:18:57;;;;;;;10.85;3.00;;;;;;;24.27;41.81;99962.00;5052586;28;20182;-58
2022/11/08 09:21:26;;;;;;;12.32;3.63;;;;;;;24.32;42.01;99965.47;5053747;28;20036;-59
2022/11/08 09:23:54;;;;;;;13.77;3.65;;;;;;;24.24;41.67;99955.00;5053694;28;20059;-59
2022/11/08 09:29:09;;;;;;;10.52;3.53;;;;;;;24.14;41.97;99955.91;5130291;27;20360;-58
2022/11/08 09:31:38;;;;;;;11.57;3.25;;;;;;;24.09;42.20;99958.56;5109965;28;20173;-58
2022/11/08 09:34:06;;;;;;;12.32;3.17;;;;;;;24.21;41.97;99965.50;5109991;28;20085;-58
2022/11/08 09:36:35;;;;;;;10.02;3.13;;;;;;;24.19;41.91;99963.75;5109933;28;20024;-55
2022/11/08 09:39:02;;;;;;;11.35;3.60;;;;;;;24.25;41.93;99982.09;5109997;28;20550;-57
2022/11/08 09:41:50;;;;;;;12.10;3.38;;;;;;;24.30;41.97;99985.56;5110026;28;20455;-57
2022/11/08 09:44:29;;;;;;;10.63;2.95;;;;;;;24.27;41.98;99981.19;5098821;28;20392;-58
2022/11/08 09:47:03;;;;;;;11.63;3.53;;;;;;;24.32;41.83;99980.31;5109465;28;20550;-58
2022/11/08 09:49:38;;;;;;;10.90;3.25;;;;;;;24.25;41.60;99958.50;5092127;28;20066;-58
2022/11/08 09:52:07;;;;;;;11.50;3.20;;;;;;;24.34;41.60;99992.53;5110065;28;20437;-58
2022/11/08 09:54:42;;;;;;;10.55;3.35;;;;;;;24.34;41.42;99989.91;5091887;28;20056;-58
2022/11/08 09:57:14;;;;;;;;;;;;;;;24.35;41.89;99986.41;5110166;28;20385;-58
2022/11/08 10:00:03;;;;;;;13.02;3.20;;;;;;;24.41;41.68;99990.75;5109134;28;19919;-58
2022/11/08 10:02:33;;;;;;;11.93;3.47;;;;;;;24.34;41.85;99982.03;5084279;28;20103;-58
2022/11/08 10:05:08;;;;;;;15.55;3.50;;;;;;;24.37;41.62;99989.03;5109155;28;20111;-58
2022/11/08 10:08:01;;;;;;;11.40;3.40;;;;;;;24.32;41.91;99993.41;5109546;28;20031;-58
2022/11/08 10:10:37;;;;;;;10.90;3.45;;;;;;;24.36;41.86;99992.53;5091171;28;20032;-57
2022/11/08 10:13:24;;;;;;;14.20;3.55;;;;;;;24.42;41.60;99984.63;5109433;28;20028;-56
2022/11/08 10:16:18;;;;;;;21.45;4.00;;;;;;;24.36;41.47;99996.00;5109213;28;20020;-57
2022/11/08 10:19:02;;;;;;;10.90;3.58;;;;;;;24.30;41.87;100009.16;5091279;28;20091;-57
2022/11/08 10:22:00;;;;;;;10.02;3.10;;;;;;;24.21;41.74;100001.31;5109501;28;20016;-58
2022/11/08 10:24:48;;;;;;;10.45;3.25;;;;;;;24.22;41.74;99998.72;5080040;28;20028;-56
2022/11/08 10:27:27;;;;;;;10.70;3.38;;;;;;;24.12;41.92;99986.50;5099432;28;20059;-57
2022/11/08 10:30:01;;;;;;;10.63;2.55;;;;;;;24.18;41.80;99996.06;5090918;28;20020;-58
2022/11/08 10:32:31;;;;;;;11.50;3.10;;;;;;;24.27;41.50;99996.06;5074117;28;20028;-58
2022/11/08 10:35:21;;;;;;;10.10;3.25;;;;;;;24.32;41.70;100002.16;5073884;28;20028;-58
2022/11/08 10:37:51;;;;;;;12.18;3.70;;;;;;;24.22;41.84;99995.19;5105137;28;20035;-58
2022/11/08 10:40:35;;;;;;;11.85;3.40;;;;;;;24.21;41.96;100006.56;5095613;28;20032;-58
2022/11/08 10:43:26;;;;;;;10.40;3.08;;;;;;;24.25;41.76;100009.16;5095512;28;20027;-58
2022/11/08 10:45:55;;;;;;;11.30;3.05;;;;;;;24.28;41.46;100006.53;5088996;28;20036;-58
2022/11/08 10:48:23;;;;;;;9.35;2.72;;;;;;;24.22;41.73;99992.56;5095224;28;20025;-58
2022/11/08 10:50:54;;;;;;;9.98;3.10;;;;;;;24.30;41.61;99997.78;5077158;28;20032;-58
2022/11/08 10:53:33;;;;;;;13.07;4.00;;;;;;;24.16;41.48;99996.09;5077233;28;20020;-58
2022/11/08 10:56:04;;;;;;;14.43;3.60;;;;;;;24.35;41.41;100001.28;5095194;28;20047;-58
2022/11/08 10:58:42;;;;;;;12.10;3.65;;;;;;;24.29;41.65;100015.28;5077304;28;20553;-57
2022/11/08 11:01:24;;;;;;;8.68;3.00;;;;;;;24.24;41.77;100003.94;5095401;28;20035;-58
2022/11/08 11:03:54;;;;;;;11.93;3.45;;;;;;;24.26;41.60;100023.16;5094774;28;20024;-58
2022/11/08 11:06:33;;;;;;;16.65;3.47;;;;;;;24.18;41.48;100012.69;5094873;28;20417;-58
2022/11/08 11:09:18;;;;;;;12.23;3.75;;;;;;;24.30;41.62;100024.00;5076623;28;20377;-53
2022/11/08 11:11:47;;;;;;;12.02;3.50;;;;;;;24.25;41.79;100024.88;5094517;28;20035;-57
2022/11/08 11:14:20;;;;;;;14.00;3.90;;;;;;;24.22;41.46;100018.78;5076902;28;20031;-58
2022/11/08 11:16:55;;;;;;;14.57;4.00;;;;;;;24.19;41.59;100019.69;5076683;28;20024;-55
2022/11/08 11:19:25;;;;;;;11.82;3.35;;;;;;;24.29;41.75;100023.16;5076558;28;20024;-58
2022/11/08 11:21:57;;;;;;;9.48;2.78;;;;;;;24.36;41.61;100029.22;5094430;28;20107;-58
2022/11/08 11:24:26;;;;;;;16.73;3.35;;;;;;;24.39;41.45;100016.97;5076723;28;20056;-56
2022/11/08 11:26:58;;;;;;;10.20;2.78;;;;;;;24.41;41.23;100022.19;5076386;28;20111;-56
2022/11/08 11:29:28;;;;;;;9.45;3.05;;;;;;;24.32;41.64;100015.28;5094414;28;20051;-57
2022/11/08 11:31:57;;;;;;;11.27;2.72;;;;;;;24.32;41.66;100012.66;5076405;28;20093;-57
2022/11/08 11:34:36;;;;;;;8.88;2.78;;;;;;;24.26;41.60;100015.28;5093913;28;20035;-58
2022/11/08 11:37:12;;;;;;;10.05;3.28;;;;;;;24.27;41.71;100019.66;5094315;28;20090;-57
2022/11/08 11:39:48;;;;;;;12.80;3.30;;;;;;;24.27;41.60;100020.50;5075994;28;20039;-58
2022/11/08 11:42:23;;;;;;;10.80;3.25;;;;;;;24.28;41.33;100019.63;5094251;28;20024;-58
2022/11/08 11:45:11;;;;;;;13.82;3.92;;;;;;;24.22;41.62;100010.91;5094165;28;20094;-52
2022/11/08 11:47:53;;;;;;;10.93;3.00;;;;;;;24.36;41.26;100021.38;5084005;28;20069;-57
2022/11/08 11:50:30;;;;;;;10.68;3.58;;;;;;;24.44;41.28;100019.56;5093037;28;20031;-53
2022/11/08 11:52:59;;;;;;;9.00;2.97;;;;;;;24.47;41.22;100024.81;5093605;28;20023;-58
2022/11/08 11:55:37;;;;;;;10.43;3.13;;;;;;;24.33;41.23;100016.13;5093474;28;20028;-58
2022/11/08 11:58:44;;;;;;;11.15;3.05;;;;;;;24.42;41.08;100035.31;5093774;28;20024;-57
2022/11/08 12:01:50;;;;;;;15.85;3.92;;;;;;;24.39;41.09;100022.22;5071297;28;20446;-57
2022/11/08 12:04:42;;;;;;;8.63;3.17;;;;;;;24.43;41.12;100020.44;5086114;28;20457;-58
2022/11/08 12:07:31;;;;;;;10.57;3.78;;;;;;;24.33;41.55;100029.25;5086224;28;20469;-57
2022/11/08 12:10:13;;;;;;;9.73;2.80;;;;;;;24.36;41.59;100029.22;5067245;28;20055;-58
2022/11/08 12:12:50;;;;;;;10.35;2.88;;;;;;;24.29;41.29;100012.66;5075899;28;20028;-58
2022/11/08 12:15:24;;;;;;;12.77;3.67;;;;;;;24.32;41.53;100017.91;5093792;28;20024;-58
2022/11/08 12:18:12;;;;;;;7.55;2.55;;;;;;;24.35;41.57;100032.72;5093772;28;20166;-56
2022/11/08 12:20:41;;;;;;;9.40;3.03;;;;;;;24.33;41.29;100030.09;5075228;28;20066;-59
2022/11/08 12:23:31;;;;;;;13.43;3.75;;;;;;;24.40;41.33;100030.97;5075130;28;20488;-56
2022/11/08 12:26:20;;;;;;;9.82;2.85;;;;;;;24.36;41.35;100030.09;5058541;28;20085;-58
2022/11/08 12:29:27;;;;;;;12.80;2.88;;;;;;;24.51;41.09;100030.91;5091853;28;20044;-57
2022/11/08 12:32:09;;;;;;;10.55;2.88;;;;;;;24.45;41.21;100029.19;5086144;28;20040;-57
2022/11/08 12:35:05;;;;;;;11.43;3.53;;;;;;;24.32;41.23;100022.25;5093140;28;20027;-59
